Flight Track Log - Related Links

Times and Time Zones

All times are in EDT time to prevent confusion due to time zone crossing. See the JZA8483 flight status page for this flight to view local times or setup timezone preferences in your user account.

Time Position Orientation Groundspeed Altitude Reporting Facility
EDT Latitude Longitude Course Direction KTS MPH feet Rate Location/Type
Tue 11:40:50 AM 52.1667 -106.7500 282° West 30 35 2,000  Level Winnipeg Center
Tue 11:41:50 AM 52.1667 -106.8167 270° West 160 184 3,100 1,000 Climbing Winnipeg Center
Tue 11:42:50 AM 52.1667 -106.9000 270° West 190 219 4,000 1,000 Climbing Winnipeg Center
Tue 11:43:50 AM 52.2000 -106.9833 303° West 190 219 5,100 1,100 Climbing Winnipeg Center
Tue 11:44:50 AM 52.2167 -107.0667 288° West 190 219 6,200 1,100 Climbing Winnipeg Center
Tue 11:45:50 AM 52.2167 -107.1500 270° West 200 230 7,300 1,109 Climbing Winnipeg Center
Tue 11:46:49 AM 52.2500 -107.2500 299° West 190 219 8,400 1,059 Climbing Winnipeg Center
Tue 11:47:00 AM 52.2884 -107.4068 282° West  Level FlightAware Approximate
Tue 11:47:49 AM 52.2500 -107.3333 270° West 190 219 9,400  Level Winnipeg Center
Tue 11:48:49 AM 52.2667 -107.4167 288° West 190 219 10,400 1,000 Climbing Winnipeg Center
Tue 11:49:49 AM 52.2667 -107.4667 270° West 190 219 11,400 1,041 Climbing Winnipeg Center
Tue 11:50:50 AM 52.3000 -107.5667 299° West 180 207 12,500 1,000 Climbing Winnipeg Center
Tue 11:51:49 AM 52.3167 -107.6500 288° West 180 207 13,400 807 Climbing Winnipeg Center
Tue 11:52:49 AM 52.3167 -107.7333 270° West 190 219 14,100 800 Climbing Winnipeg Center
Tue 11:53:49 AM 52.3333 -107.8167 288° West 190 219 15,000 900 Climbing Winnipeg Center
Tue 11:54:49 AM 52.3500 -107.9000 288° West 190 219 15,900 850 Climbing Winnipeg Center
Tue 11:55:49 AM 52.3667 -107.9833 288° West 190 219 16,700 800 Climbing Winnipeg Center
Tue 11:56:49 AM 52.3667 -108.0667 270° West 190 219 17,500 754 Climbing Winnipeg Center
Tue 11:58:36 AM 52.3833 -108.1833 283° West 190 219 18,800 719 Climbing Edmonton Center
Tue 11:59:36 AM 52.4000 -108.2667 288° West 190 219 19,500 600 Climbing Edmonton Center
Tue 12:00:36 PM 52.4167 -108.3500 288° West 190 219 20,000 250 Climbing Edmonton Center
Tue 12:01:36 PM 52.4333 -108.4333 288° West 210 242 20,000  Level Edmonton Center
Tue 12:02:36 PM 52.4500 -108.5333 285° West 230 265 20,000  Level Edmonton Center
Tue 12:03:36 PM 52.4833 -108.6500 295° West 240 276 20,000  Level Edmonton Center
Tue 12:04:36 PM 52.4833 -108.7667 270° West 250 288 20,000  Level Edmonton Center
Tue 12:05:36 PM 52.5000 -108.8833 283° West 250 288 20,000  Level Edmonton Center
Tue 12:06:36 PM 52.5167 -109.0000 283° West 250 288 20,000  Level Edmonton Center
Tue 12:07:36 PM 52.5333 -109.1000 285° West 250 288 20,000  Level Edmonton Center
Tue 12:08:36 PM 52.5667 -109.2167 295° West 250 288 20,000  Level Edmonton Center
Tue 12:09:36 PM 52.5667 -109.3333 270° West 250 288 20,000  Level Edmonton Center
Tue 12:10:36 PM 52.5833 -109.4500 283° West 250 288 20,000  Level Edmonton Center
Tue 12:11:36 PM 52.6167 -109.5667 295° West 250 288 20,000  Level Edmonton Center
Tue 12:12:36 PM 52.6333 -109.6667 285° West 250 288 20,000  Level Edmonton Center
Tue 12:13:36 PM 52.6333 -109.7833 270° West 250 288 20,000  Level Edmonton Center
Tue 12:14:36 PM 52.6500 -109.9000 283° West 250 288 20,000  Level Edmonton Center
Tue 12:15:36 PM 52.6833 -110.0167 295° West 250 288 20,000  Level Edmonton Center
Tue 12:16:36 PM 52.6833 -110.1333 270° West 250 288 20,000  Level Edmonton Center
Tue 12:17:36 PM 52.7000 -110.2333 285° West 250 288 20,000  Level Edmonton Center
Tue 12:18:36 PM 52.7333 -110.3500 295° West 260 299 20,000  Level Edmonton Center
Tue 12:19:36 PM 52.7500 -110.4667 283° West 260 299 20,000  Level Edmonton Center
Tue 12:20:36 PM 52.7500 -110.5833 270° West 260 299 20,000  Level Edmonton Center
Tue 12:21:36 PM 52.7667 -110.7000 283° West 260 299 20,000  Level Edmonton Center
Tue 12:22:36 PM 52.8000 -110.8167 295° West 260 299 20,000  Level Edmonton Center
Tue 12:23:36 PM 52.8000 -110.9333 270° West 260 299 20,000  Level Edmonton Center
Tue 12:24:36 PM 52.8167 -111.0333 285° West 260 299 20,000  Level Edmonton Center
Tue 12:25:36 PM 52.8333 -111.1833 280° West 260 299 20,000  Level Edmonton Center
Tue 12:26:36 PM 52.8500 -111.3000 283° West 260 299 20,000  Level Edmonton Center
Tue 12:27:36 PM 52.8667 -111.4167 283° West 260 299 20,000  Level Edmonton Center
Tue 12:28:36 PM 52.8667 -111.5333 270° West 260 299 20,000  Level Edmonton Center
Tue 12:29:36 PM 52.9000 -111.6500 295° West 260 299 20,000  Level Edmonton Center
Tue 12:30:36 PM 52.9167 -111.7500 285° West 260 299 20,000  Level Edmonton Center
Tue 12:31:36 PM 52.9167 -111.8667 270° West 260 299 20,000  Level Edmonton Center
Tue 12:32:36 PM 52.9500 -112.0167 290° West 260 299 20,000  Level Edmonton Center
Tue 12:33:36 PM 52.9500 -112.1333 270° West 260 299 20,000 -650 Level Edmonton Center
Tue 12:34:36 PM 52.9667 -112.2500 283° West 270 311 18,700 -1,300 Descending Edmonton Center
Tue 12:35:36 PM 52.9833 -112.3833 282° West 290 334 17,400 -1,400 Descending Edmonton Center
Tue 12:36:36 PM 53.0000 -112.5000 283° West 290 334 15,900 -1,550 Descending Edmonton Center
Tue 12:37:36 PM 53.0167 -112.6500 281° West 290 334 14,300 -1,500 Descending Edmonton Center
Tue 12:38:36 PM 53.0333 -112.7667 283° West 290 334 12,900 -1,500 Descending Edmonton Center
Tue 12:39:36 PM 53.0500 -112.9167 281° West 280 322 11,300 -1,550 Descending Edmonton Center
Tue 12:40:36 PM 53.0833 -113.0000 304° West 260 299 9,800 -1,450 Descending Edmonton Center
Tue 12:41:36 PM 53.1333 -113.1000 310° West 260 299 8,400 -1,300 Descending Edmonton Center
Tue 12:42:36 PM 53.1833 -113.2000 310° West 250 288 7,200 -1,000 Descending Edmonton Center
Tue 12:43:36 PM 53.2333 -113.2500 329° Northwest 250 288 6,400 -600 Descending Edmonton Center
Tue 12:44:36 PM 53.2833 -113.3500 310° West 250 288 6,000 -800 Descending Edmonton Center
Tue 12:45:36 PM 53.3167 -113.4500 299° West 240 276 4,800 -1,000 Descending Edmonton Center
Tue 12:46:36 PM 53.3500 -113.5167 310° West 180 207 4,000 -900 Descending Edmonton Center
Tue 12:47:36 PM 53.3333 -113.5667 241° Southwest 140 161 3,000 -850 Descending Edmonton Center
Tue 12:48:36 PM 53.3167 -113.5833 211° Southwest 120 138 2,300 -700 Descending Edmonton Center

Login

Don't have an account? Register now (free) for customized features, flight alerts, and more!